Time;durP1;ratioP1;P1;durP2;ratioP2;P2;SDS_P1;SDS_P2;PMS_P1;PMS_P2;Temp;Humidity;BMP_temperature;BMP_pressure;BME280_temperature;BME280_humidity;BME280_pressure;Samples;Min_cycle;Max_cycle;Signal;HPM_P1;HPM_P2
2021/06/26 00:01:30;;;;;;;5.18;3.92;;;18.70;99.90;;;;;;5034057;28;20643;-75
2021/06/26 00:03:57;;;;;;;7.78;4.72;;;18.70;99.90;;;;;;5034091;28;20307;-74
2021/06/26 00:06:25;;;;;;;6.47;4.78;;;18.70;99.90;;;;;;5034109;28;20262;-75
2021/06/26 00:08:52;;;;;;;6.72;4.65;;;18.60;99.90;;;;;;5034260;28;20287;-75
2021/06/26 00:11:19;;;;;;;6.10;3.72;;;18.60;99.90;;;;;;5034109;28;20206;-75
2021/06/26 00:13:47;;;;;;;6.00;4.70;;;18.60;99.90;;;;;;5033807;28;20651;-75
2021/06/26 00:16:15;;;;;;;5.80;4.20;;;18.60;99.90;;;;;;5033736;28;20326;-75
2021/06/26 00:18:41;;;;;;;8.15;4.80;;;18.60;99.90;;;;;;5033987;28;20208;-75
2021/06/26 00:21:08;;;;;;;7.60;5.03;;;18.50;99.90;;;;;;5033632;28;20620;-76
2021/06/26 00:23:37;;;;;;;7.05;4.40;;;18.40;99.90;;;;;;5033591;28;20287;-74
2021/06/26 00:26:04;;;;;;;6.05;4.50;;;18.30;99.90;;;;;;5033689;28;20228;-75
2021/06/26 00:28:31;;;;;;;7.10;3.97;;;18.40;99.90;;;;;;5033810;28;20290;-72
2021/06/26 00:30:57;;;;;;;6.30;4.45;;;18.40;99.90;;;;;;5033315;28;20321;-74
2021/06/26 00:33:24;;;;;;;7.95;4.85;;;18.40;99.90;;;;;;5033803;28;20231;-72
2021/06/26 00:35:51;;;;;;;5.43;4.28;;;18.40;99.90;;;;;;5034036;28;20265;-73
2021/06/26 00:38:18;;;;;;;5.72;4.43;;;18.50;99.90;;;;;;5033704;28;20247;-72
2021/06/26 00:40:46;;;;;;;6.43;4.07;;;18.50;99.90;;;;;;5033383;28;20873;-73
2021/06/26 00:43:13;;;;;;;5.20;3.90;;;18.60;99.90;;;;;;5033795;28;20543;-73
2021/06/26 00:45:40;;;;;;;4.30;3.67;;;18.50;99.90;;;;;;5033512;28;20794;-72
2021/06/26 00:48:08;;;;;;;5.63;4.28;;;18.50;99.90;;;;;;5033536;28;20299;-73
2021/06/26 00:50:34;;;;;;;7.15;4.43;;;18.50;99.90;;;;;;5033744;28;20292;-71
2021/06/26 00:53:02;;;;;;;7.13;3.92;;;18.50;99.90;;;;;;5035015;28;20319;-72
2021/06/26 00:55:29;;;;;;;4.65;3.95;;;18.50;99.90;;;;;;5033928;28;20220;-73
2021/06/26 00:58:01;;;;;;;6.10;4.20;;;18.50;99.90;;;;;;5033361;28;20201;-75
2021/06/26 01:00:28;;;;;;;6.68;4.32;;;18.50;99.90;;;;;;5033318;28;20207;-73
2021/06/26 01:02:56;;;;;;;6.27;4.70;;;18.50;99.90;;;;;;5034111;28;20291;-72
2021/06/26 01:05:24;;;;;;;8.02;4.45;;;18.50;99.90;;;;;;5034145;28;20536;-72
2021/06/26 01:07:52;;;;;;;5.28;3.80;;;18.50;99.90;;;;;;5033708;28;20291;-73
2021/06/26 01:10:19;;;;;;;9.60;5.07;;;18.50;99.90;;;;;;5033380;28;20211;-74
2021/06/26 01:12:46;;;;;;;7.05;4.25;;;18.40;99.90;;;;;;5033435;28;21069;-73
2021/06/26 01:15:16;;;;;;;6.18;4.55;;;18.50;99.90;;;;;;5033146;28;20224;-74
2021/06/26 01:17:43;;;;;;;6.32;4.72;;;18.40;99.90;;;;;;5033830;28;20291;-71
2021/06/26 01:20:11;;;;;;;7.10;4.85;;;18.30;99.90;;;;;;5033665;28;20294;-74
2021/06/26 01:22:44;;;;;;;6.43;4.40;;;18.30;99.90;;;;;;5034295;28;20282;-76
2021/06/26 01:25:12;;;;;;;7.65;4.55;;;18.40;99.90;;;;;;5032765;28;20585;-76
2021/06/26 01:27:38;;;;;;;4.95;3.63;;;18.50;99.90;;;;;;5032875;28;20210;-76
2021/06/26 01:30:07;;;;;;;6.43;4.20;;;18.50;99.90;;;;;;5032830;28;20210;-76
2021/06/26 01:32:34;;;;;;;8.07;4.85;;;18.50;99.90;;;;;;5033150;28;20314;-76
2021/06/26 01:35:01;;;;;;;7.07;5.00;;;18.50;99.90;;;;;;5032576;28;20575;-76
2021/06/26 01:37:28;;;;;;;7.78;4.80;;;18.40;99.90;;;;;;5032851;28;20212;-76
2021/06/26 01:39:56;;;;;;;6.32;4.35;;;18.40;99.90;;;;;;5032467;28;20227;-76
2021/06/26 01:42:23;;;;;;;5.22;4.70;;;18.40;99.90;;;;;;5032801;28;20291;-76
2021/06/26 01:44:50;;;;;;;6.63;4.25;;;18.40;99.90;;;;;;5032610;28;20294;-76
2021/06/26 01:47:17;;;;;;;7.05;4.78;;;18.40;99.90;;;;;;5032940;28;20204;-76
2021/06/26 01:49:43;;;;;;;5.40;4.35;;;18.30;99.90;;;;;;5032873;28;20319;-75
2021/06/26 01:52:11;;;;;;;7.03;4.43;;;18.30;99.90;;;;;;5031983;28;20257;-75
2021/06/26 01:54:38;;;;;;;7.57;5.32;;;18.40;99.90;;;;;;5032350;28;20296;-75
2021/06/26 01:57:08;;;;;;;4.53;3.92;;;18.30;99.90;;;;;;5032693;28;20650;-74
2021/06/26 01:59:35;;;;;;;7.45;5.10;;;18.30;99.90;;;;;;5032641;28;20212;-75
2021/06/26 02:02:02;;;;;;;5.13;4.10;;;18.30;99.90;;;;;;5032506;28;20210;-73
2021/06/26 02:04:28;;;;;;;8.43;5.07;;;18.20;99.90;;;;;;5032441;28;20208;-74
2021/06/26 02:06:55;;;;;;;6.55;4.80;;;18.20;99.90;;;;;;5032365;28;20231;-74
2021/06/26 02:09:22;;;;;;;5.28;4.22;;;18.30;99.90;;;;;;5032170;28;20760;-74
2021/06/26 02:11:49;;;;;;;5.32;4.38;;;18.30;99.90;;;;;;5032319;28;20246;-74
2021/06/26 02:14:17;;;;;;;6.85;5.03;;;18.30;99.90;;;;;;5032713;28;20312;-77
2021/06/26 02:16:44;;;;;;;8.43;4.90;;;18.30;99.90;;;;;;5034343;28;20255;-73
2021/06/26 02:19:11;;;;;;;5.63;4.75;;;18.30;99.90;;;;;;5033709;28;20291;-72
2021/06/26 02:21:38;;;;;;;7.13;5.20;;;18.30;99.90;;;;;;5033107;28;20290;-73
2021/06/26 02:24:06;;;;;;;6.85;4.97;;;18.20;99.90;;;;;;5033266;28;20295;-72
2021/06/26 02:26:33;;;;;;;7.68;4.05;;;18.10;99.90;;;;;;5033577;28;20636;-73
2021/06/26 02:28:59;;;;;;;10.07;6.35;;;18.20;99.90;;;;;;5033660;28;20299;-73
2021/06/26 02:31:27;;;;;;;8.65;5.13;;;18.20;99.90;;;;;;5033497;28;20239;-73
2021/06/26 02:33:54;;;;;;;5.32;4.70;;;18.30;99.90;;;;;;5033675;28;20223;-72
2021/06/26 02:36:21;;;;;;;8.38;5.90;;;18.30;99.90;;;;;;5033149;28;20227;-72
2021/06/26 02:38:48;;;;;;;6.18;4.10;;;18.30;99.90;;;;;;5033795;28;20210;-73
2021/06/26 02:41:15;;;;;;;5.85;4.72;;;18.20;99.90;;;;;;5033311;28;20300;-73
2021/06/26 02:43:41;;;;;;;7.38;5.00;;;18.10;99.90;;;;;;5033490;28;20208;-72
2021/06/26 02:46:08;;;;;;;7.53;4.82;;;18.20;99.90;;;;;;5033058;28;20220;-72
2021/06/26 02:48:36;;;;;;;8.00;6.30;;;18.20;99.90;;;;;;5033907;28;20205;-72
2021/06/26 02:51:03;;;;;;;9.38;5.70;;;18.30;99.90;;;;;;5033306;28;20236;-73
2021/06/26 02:53:30;;;;;;;13.82;5.93;;;18.30;99.90;;;;;;5033203;28;20232;-72
2021/06/26 02:55:57;;;;;;;7.05;5.53;;;18.30;99.90;;;;;;5032809;28;20310;-73
2021/06/26 02:58:24;;;;;;;6.60;4.90;;;18.40;99.90;;;;;;5033430;28;20291;-72
2021/06/26 03:00:51;;;;;;;9.80;7.00;;;18.40;99.90;;;;;;5032746;28;20701;-73
2021/06/26 03:03:18;;;;;;;6.38;4.25;;;18.40;99.90;;;;;;5035075;28;20212;-72
2021/06/26 03:05:46;;;;;;;8.38;5.55;;;18.40;99.90;;;;;;5036560;28;20629;-72
2021/06/26 03:08:13;;;;;;;7.05;5.20;;;18.40;99.90;;;;;;5036941;28;20603;-73
2021/06/26 03:10:40;;;;;;;9.90;5.13;;;18.40;99.90;;;;;;5036291;28;20235;-73
2021/06/26 03:13:06;;;;;;;7.68;5.57;;;18.30;99.90;;;;;;5036736;28;20306;-73
2021/06/26 03:15:33;;;;;;;7.90;4.85;;;18.40;99.90;;;;;;5036977;28;20258;-72
2021/06/26 03:18:03;;;;;;;5.65;4.28;;;18.20;99.90;;;;;;5037703;28;20290;-72
2021/06/26 03:20:30;;;;;;;6.40;4.57;;;18.10;99.90;;;;;;5036978;28;20294;-72
2021/06/26 03:22:58;;;;;;;6.50;4.57;;;18.00;99.90;;;;;;5036942;28;20669;-72
2021/06/26 03:25:25;;;;;;;7.20;4.80;;;18.00;99.90;;;;;;5037108;28;20314;-72
2021/06/26 03:27:52;;;;;;;8.90;5.32;;;18.00;99.90;;;;;;5036869;28;20207;-72
2021/06/26 03:30:19;;;;;;;7.50;5.00;;;18.00;99.90;;;;;;5036368;28;20577;-72
2021/06/26 03:32:46;;;;;;;7.07;4.60;;;17.90;99.90;;;;;;5036351;28;20315;-72
2021/06/26 03:35:14;;;;;;;6.93;4.70;;;18.00;99.90;;;;;;5036385;28;20319;-72
2021/06/26 03:37:41;;;;;;;6.85;4.95;;;17.90;99.90;;;;;;5036312;28;20295;-72
2021/06/26 03:40:11;;;;;;;8.02;5.40;;;17.90;99.90;;;;;;5036094;28;20211;-72
2021/06/26 03:42:38;;;;;;;6.18;4.57;;;18.00;99.90;;;;;;5036398;28;20658;-73
2021/06/26 03:45:06;;;;;;;10.68;5.55;;;17.90;99.90;;;;;;5036551;28;20656;-72
2021/06/26 03:47:33;;;;;;;8.93;5.43;;;18.00;99.90;;;;;;5036352;28;20204;-73
2021/06/26 03:50:00;;;;;;;7.22;4.40;;;18.00;99.90;;;;;;5036130;28;20246;-73
2021/06/26 03:52:27;;;;;;;9.38;5.72;;;18.00;99.90;;;;;;5036077;28;20235;-72
2021/06/26 03:54:54;;;;;;;7.45;4.93;;;18.00;99.90;;;;;;5036317;28;20291;-73
2021/06/26 03:57:22;;;;;;;9.43;5.28;;;18.00;99.90;;;;;;5035798;28;20738;-72
2021/06/26 03:59:49;;;;;;;6.90;4.45;;;17.90;99.90;;;;;;5035510;28;20299;-72
2021/06/26 04:02:16;;;;;;;7.00;4.63;;;17.80;99.90;;;;;;5036149;28;20232;-73
2021/06/26 04:04:42;;;;;;;7.43;5.63;;;17.80;99.90;;;;;;5036122;28;20206;-71
2021/06/26 04:07:09;;;;;;;7.70;5.10;;;17.70;99.90;;;;;;5036580;28;20592;-72
2021/06/26 04:09:36;;;;;;;7.03;4.88;;;17.80;99.90;;;;;;5036607;28;20235;-72
2021/06/26 04:12:03;;;;;;;6.78;5.00;;;17.70;99.90;;;;;;5036157;28;20562;-73
2021/06/26 04:14:31;;;;;;;7.03;4.45;;;17.80;99.90;;;;;;5035240;28;20315;-73
2021/06/26 04:16:58;;;;;;;6.40;4.85;;;17.70;99.90;;;;;;5035804;28;20318;-72
2021/06/26 04:19:25;;;;;;;7.32;4.95;;;17.80;99.90;;;;;;5035952;28;20210;-72
2021/06/26 04:21:52;;;;;;;6.63;4.50;;;17.80;99.90;;;;;;5035757;28;20593;-72
2021/06/26 04:24:19;;;;;;;8.55;4.45;;;17.80;99.90;;;;;;5035880;28;20291;-72
2021/06/26 04:26:45;;;;;;;6.22;4.68;;;17.80;99.90;;;;;;5035837;28;20652;-72
2021/06/26 04:29:13;;;;;;;8.15;5.20;;;17.90;99.90;;;;;;5034942;28;20291;-72
2021/06/26 04:31:42;;;;;;;6.38;4.75;;;17.90;99.90;;;;;;5035327;28;20244;-72
2021/06/26 04:34:08;;;;;;;8.73;5.40;;;17.90;99.90;;;;;;5035595;28;20625;-72
2021/06/26 04:36:35;;;;;;;7.95;4.65;;;17.90;99.90;;;;;;5035748;28;20311;-72
2021/06/26 04:39:07;;;;;;;5.25;4.03;;;17.90;99.90;;;;;;5035774;28;20204;-72
2021/06/26 04:41:34;;;;;;;6.63;4.43;;;17.90;99.90;;;;;;5035001;28;20558;-72
2021/06/26 04:44:00;;;;;;;9.18;5.22;;;17.90;99.90;;;;;;5035097;28;20287;-72
2021/06/26 04:46:27;;;;;;;6.68;4.75;;;17.80;99.90;;;;;;5035487;28;20311;-72
2021/06/26 04:48:56;;;;;;;6.80;4.68;;;17.70;99.90;;;;;;5035319;28;20239;-72
2021/06/26 04:51:22;;;;;;;5.60;4.53;;;17.70;99.90;;;;;;5034539;28;20204;-72
2021/06/26 04:53:50;;;;;;;9.23;5.05;;;17.60;99.90;;;;;;5035222;28;20761;-73
2021/06/26 04:56:17;;;;;;;8.77;5.55;;;17.50;99.90;;;;;;5034868;28;20224;-73
2021/06/26 04:58:43;;;;;;;9.35;6.30;;;17.50;99.90;;;;;;5034869;28;20208;-72
2021/06/26 05:01:11;;;;;;;8.48;4.85;;;17.50;99.90;;;;;;5034709;28;20295;-72
2021/06/26 05:03:39;;;;;;;8.15;4.55;;;17.60;99.90;;;;;;5035189;28;20234;-72
2021/06/26 05:06:07;;;;;;;9.52;5.95;;;17.50;99.90;;;;;;5035088;28;20227;-72
2021/06/26 05:08:34;;;;;;;10.27;5.40;;;17.60;99.90;;;;;;5034636;28;20322;-72
2021/06/26 05:11:02;;;;;;;9.57;5.90;;;17.60;99.90;;;;;;5034768;28;20210;-72
2021/06/26 05:13:29;;;;;;;9.95;6.28;;;17.60;99.90;;;;;;5034695;28;20687;-72
2021/06/26 05:15:57;;;;;;;8.63;6.05;;;17.60;99.90;;;;;;5035170;28;20239;-72
2021/06/26 05:18:27;;;;;;;7.97;5.68;;;17.60;99.90;;;;;;5035347;28;20204;-72
2021/06/26 05:20:54;;;;;;;7.75;5.75;;;17.60;99.90;;;;;;5034320;28;20239;-72
2021/06/26 05:23:22;;;;;;;11.77;6.10;;;17.60;99.90;;;;;;5034404;28;20207;-72
2021/06/26 05:25:49;;;;;;;8.63;5.20;;;17.60;99.90;;;;;;5033686;28;20230;-73
2021/06/26 05:28:16;;;;;;;11.00;5.95;;;17.70;99.90;;;;;;5033899;28;20298;-73
2021/06/26 05:30:44;;;;;;;9.55;7.00;;;17.70;99.90;;;;;;5034020;28;20212;-72
2021/06/26 05:33:11;;;;;;;11.77;7.20;;;17.80;99.90;;;;;;5034555;28;20299;-72
2021/06/26 05:35:38;;;;;;;10.48;6.57;;;17.80;99.90;;;;;;5034068;28;20252;-73
2021/06/26 05:38:05;;;;;;;11.23;7.13;;;17.90;99.90;;;;;;5034109;28;20291;-72
2021/06/26 05:40:33;;;;;;;11.23;6.43;;;17.90;99.90;;;;;;5034005;28;20247;-72
2021/06/26 05:43:01;;;;;;;8.50;6.57;;;18.00;99.90;;;;;;5034185;28;20295;-73
2021/06/26 05:45:28;;;;;;;10.98;6.55;;;18.00;99.90;;;;;;5034296;28;20220;-73
2021/06/26 05:47:55;;;;;;;12.88;7.05;;;18.00;99.90;;;;;;5034229;28;20653;-73
2021/06/26 05:50:21;;;;;;;7.40;5.63;;;18.00;99.90;;;;;;5033847;28;20287;-72
2021/06/26 05:52:49;;;;;;;9.55;6.15;;;18.20;99.90;;;;;;5033905;28;20204;-73
2021/06/26 05:55:17;;;;;;;10.35;7.10;;;18.30;99.90;;;;;;5033891;28;20595;-72
2021/06/26 05:57:46;;;;;;;9.73;7.57;;;18.40;99.90;;;;;;5034467;28;20294;-73
2021/06/26 06:00:14;;;;;;;10.95;7.43;;;18.50;99.90;;;;;;5033960;28;20207;-73
2021/06/26 06:02:45;;;;;;;11.85;7.38;;;18.30;99.90;;;;;;5033588;28;20326;-73
2021/06/26 06:05:13;;;;;;;13.25;7.60;;;18.40;99.90;;;;;;5033514;28;20260;-73
2021/06/26 06:07:40;;;;;;;9.50;6.70;;;18.40;99.90;;;;;;5033701;28;20682;-73
2021/06/26 06:10:09;;;;;;;11.23;7.40;;;18.40;99.90;;;;;;5033690;28;20204;-73
2021/06/26 06:12:38;;;;;;;11.00;7.68;;;18.50;99.90;;;;;;5033590;28;20642;-73
2021/06/26 06:15:08;;;;;;;10.85;7.25;;;18.50;99.90;;;;;;5033408;28;20233;-73
2021/06/26 06:17:36;;;;;;;11.53;6.10;;;18.60;99.90;;;;;;5034030;28;20286;-73
2021/06/26 06:20:04;;;;;;;8.90;6.68;;;18.70;99.90;;;;;;5033240;28;20539;-73
2021/06/26 06:22:31;;;;;;;9.35;6.07;;;18.70;99.90;;;;;;5033756;28;20214;-73
2021/06/26 06:24:58;;;;;;;9.80;5.47;;;18.70;99.90;;;;;;5033618;28;20227;-73
2021/06/26 06:27:25;;;;;;;9.50;7.07;;;18.80;99.90;;;;;;5033646;28;20536;-73
2021/06/26 06:29:52;;;;;;;12.07;7.37;;;19.00;99.90;;;;;;5033097;28;20955;-74
2021/06/26 06:32:20;;;;;;;10.30;6.40;;;19.10;99.90;;;;;;5033283;28;20461;-73
2021/06/26 06:34:47;;;;;;;10.90;7.73;;;19.20;99.90;;;;;;5033443;28;20479;-73
2021/06/26 06:37:14;;;;;;;8.73;6.47;;;19.30;99.90;;;;;;5034006;28;20839;-73
2021/06/26 06:39:41;;;;;;;10.93;6.50;;;19.40;99.90;;;;;;5037882;28;20561;-73
2021/06/26 06:42:08;;;;;;;11.43;6.70;;;19.50;99.90;;;;;;5037604;28;20450;-73
2021/06/26 06:44:35;;;;;;;11.13;6.53;;;19.60;99.90;;;;;;5037426;28;20435;-73
2021/06/26 06:47:02;;;;;;;11.67;6.97;;;19.80;99.90;;;;;;5037768;28;20535;-73
2021/06/26 06:49:31;;;;;;;10.83;7.10;;;19.80;99.90;;;;;;5037532;28;20528;-73
2021/06/26 06:51:57;;;;;;;8.20;6.17;;;19.80;99.90;;;;;;5037142;28;20936;-73
2021/06/26 06:54:24;;;;;;;9.07;6.80;;;19.80;99.90;;;;;;5037336;28;20486;-73
2021/06/26 06:56:51;;;;;;;8.30;6.33;;;19.80;99.90;;;;;;5037511;28;20502;-73
2021/06/26 06:59:18;;;;;;;9.37;5.77;;;19.90;99.90;;;;;;5037294;28;20518;-73
2021/06/26 07:01:45;;;;;;;7.63;5.63;;;20.00;99.90;;;;;;5036945;28;20535;-73
2021/06/26 07:04:11;;;;;;;13.50;7.13;;;20.20;99.90;;;;;;5037342;28;20547;-73
2021/06/26 07:06:40;;;;;;;10.27;6.77;;;20.40;99.90;;;;;;5036868;28;20470;-73
2021/06/26 07:09:06;;;;;;;7.77;6.07;;;20.50;99.90;;;;;;5037317;28;20440;-73
2021/06/26 07:11:33;;;;;;;7.83;6.37;;;20.60;99.90;;;;;;5036559;28;20481;-73
2021/06/26 07:14:00;;;;;;;9.00;5.90;;;20.30;99.90;;;;;;5036516;28;21049;-73
2021/06/26 07:16:27;;;;;;;10.00;7.07;;;20.20;99.90;;;;;;5037145;28;20979;-73
2021/06/26 07:18:54;;;;;;;10.10;6.97;;;20.40;99.90;;;;;;5037074;28;20546;-73
2021/06/26 07:21:20;;;;;;;9.10;6.27;;;20.50;99.90;;;;;;5036612;28;20476;-73
2021/06/26 07:23:49;;;;;;;10.60;5.83;;;20.60;99.90;;;;;;5036491;28;20544;-73
2021/06/26 07:26:15;;;;;;;8.90;6.30;;;20.60;99.90;;;;;;5037042;28;20469;-73
2021/06/26 07:28:42;;;;;;;8.53;6.20;;;20.60;99.90;;;;;;5036717;28;20552;-73
2021/06/26 07:31:09;;;;;;;8.43;5.70;;;20.60;99.90;;;;;;5036549;28;20859;-73
2021/06/26 07:33:36;;;;;;;10.90;6.77;;;20.80;99.90;;;;;;5036753;28;20450;-73
2021/06/26 07:36:03;;;;;;;10.17;7.40;;;20.60;99.90;;;;;;5036439;28;20556;-73
2021/06/26 07:38:30;;;;;;;7.53;6.10;;;20.60;99.90;;;;;;5036590;28;20457;-73
2021/06/26 07:40:58;;;;;;;9.20;6.40;;;20.70;99.90;;;;;;5036311;28;20503;-72
2021/06/26 07:43:26;;;;;;;9.03;6.20;;;20.70;99.90;;;;;;5036869;28;20532;-73
2021/06/26 07:45:52;;;;;;;8.20;5.47;;;20.70;99.90;;;;;;5036032;28;20465;-73
2021/06/26 07:48:19;;;;;;;8.67;6.23;;;20.80;99.90;;;;;;5036831;28;20541;-73
2021/06/26 07:50:50;;;;;;;7.37;6.03;;;20.90;99.90;;;;;;5035061;28;20476;-74
2021/06/26 07:53:17;;;;;;;9.10;5.80;;;20.90;99.90;;;;;;5036396;28;20524;-73
2021/06/26 07:55:50;;;;;;;7.37;5.23;;;21.40;99.90;;;;;;5036807;28;20561;-73
2021/06/26 07:58:19;;;;;;;7.10;5.13;;;22.40;99.90;;;;;;5036532;28;20446;-73
2021/06/26 08:00:47;;;;;;;7.30;5.40;;;23.00;99.90;;;;;;5035525;28;20470;-73
2021/06/26 08:03:14;;;;;;;7.37;6.30;;;23.60;99.90;;;;;;5036242;28;20497;-73
2021/06/26 08:05:40;;;;;;;6.73;5.50;;;23.70;99.90;;;;;;5035653;28;20469;-73
2021/06/26 08:08:07;;;;;;;6.33;5.00;;;23.60;99.90;;;;;;5035830;28;20539;-73
2021/06/26 08:10:34;;;;;;;6.83;4.97;;;23.50;99.90;;;;;;5035214;28;20532;-73
2021/06/26 08:13:01;;;;;;;6.97;5.43;;;23.50;99.90;;;;;;5035360;28;20460;-73
2021/06/26 08:15:29;;;;;;;9.87;5.40;;;23.70;99.90;;;;;;5035491;28;21070;-73
2021/06/26 08:17:56;;;;;;;8.87;5.60;;;23.60;99.90;;;;;;5035895;28;20444;-73
2021/06/26 08:20:23;;;;;;;6.23;5.33;;;23.90;99.90;;;;;;5035318;28;20537;-73
2021/06/26 08:22:50;;;;;;;9.37;5.70;;;24.10;99.90;;;;;;5035532;28;20796;-73
2021/06/26 08:25:17;;;;;;;5.30;4.40;;;24.40;99.90;;;;;;5034994;28;20462;-73
2021/06/26 08:27:44;;;;;;;5.90;5.00;;;24.70;99.90;;;;;;5035831;28;20460;-73
2021/06/26 08:30:12;;;;;;;6.00;4.60;;;24.80;97.80;;;;;;5035245;28;20533;-74
2021/06/26 08:32:42;;;;;;;5.30;4.33;;;25.00;98.40;;;;;;5035595;28;20534;-73
2021/06/26 08:35:10;;;;;;;6.80;4.97;;;25.30;97.30;;;;;;5035212;28;20818;-73
2021/06/26 08:37:37;;;;;;;7.43;5.77;;;25.60;96.10;;;;;;5035549;28;20771;-73
2021/06/26 08:40:04;;;;;;;6.53;5.80;;;25.80;96.00;;;;;;5034969;28;20875;-73
2021/06/26 08:42:31;;;;;;;5.83;4.60;;;26.00;96.60;;;;;;5035212;28;20442;-73
2021/06/26 08:45:00;;;;;;;5.43;4.10;;;26.80;94.70;;;;;;5035455;28;20988;-74
2021/06/26 08:47:27;;;;;;;7.13;4.73;;;27.60;92.50;;;;;;5035016;28;20514;-74
2021/06/26 08:49:55;;;;;;;7.13;5.23;;;27.90;90.60;;;;;;5035261;28;20438;-74
2021/06/26 08:52:22;;;;;;;7.17;4.87;;;28.10;87.20;;;;;;5035476;28;21013;-73
2021/06/26 08:54:51;;;;;;;6.60;5.57;;;27.70;83.60;;;;;;5035248;28;20485;-73
2021/06/26 08:57:26;;;;;;;6.67;4.53;;;27.50;87.50;;;;;;5035514;28;20968;-73
2021/06/26 08:59:53;;;;;;;6.70;5.33;;;27.50;84.90;;;;;;5034959;28;20457;-73
2021/06/26 09:02:21;;;;;;;7.30;5.47;;;28.10;83.50;;;;;;5034756;28;20526;-73
2021/06/26 09:04:48;;;;;;;6.17;5.30;;;28.50;79.60;;;;;;5035310;28;20522;-73
2021/06/26 09:07:26;;;;;;;8.30;5.23;;;28.60;80.30;;;;;;5035789;28;20804;-73
2021/06/26 09:09:55;;;;;;;6.20;4.97;;;28.40;80.40;;;;;;5034780;28;20821;-73
2021/06/26 09:12:22;;;;;;;6.40;4.87;;;28.30;80.40;;;;;;5034480;28;20447;-73
2021/06/26 09:14:50;;;;;;;5.00;4.20;;;29.30;75.20;;;;;;5034386;28;20574;-73
2021/06/26 09:17:18;;;;;;;6.20;5.60;;;29.80;74.00;;;;;;5034987;28;20447;-73
2021/06/26 09:19:55;;;;;;;7.23;4.93;;;30.00;70.30;;;;;;5034503;28;20455;-73
2021/06/26 09:22:35;;;;;;;5.67;4.77;;;30.00;72.00;;;;;;5034610;28;20812;-75
2021/06/26 09:25:02;;;;;;;5.50;4.33;;;30.40;70.10;;;;;;5033972;28;20481;-73
2021/06/26 09:27:33;;;;;;;7.73;4.93;;;30.60;69.30;;;;;;5034970;28;20534;-74
2021/06/26 09:30:00;;;;;;;5.27;4.77;;;31.90;65.80;;;;;;5034202;28;20503;-74
2021/06/26 09:32:29;;;;;;;5.30;4.60;;;32.20;60.90;;;;;;5034522;28;20538;-74
2021/06/26 09:34:57;;;;;;;6.47;5.37;;;31.70;60.20;;;;;;5034209;28;21092;-73
2021/06/26 09:37:27;;;;;;;5.10;4.60;;;30.80;62.90;;;;;;5034337;28;20786;-73
2021/06/26 09:39:56;;;;;;;5.50;4.97;;;29.80;66.30;;;;;;5034317;28;20441;-74
2021/06/26 09:42:24;;;;;;;5.87;5.00;;;29.20;70.50;;;;;;5034443;28;20988;-73
2021/06/26 09:44:54;;;;;;;5.70;5.00;;;29.30;71.00;;;;;;5034051;28;20854;-73
2021/06/26 09:47:32;;;;;;;6.60;5.10;;;29.60;66.80;;;;;;5033987;28;20446;-73
2021/06/26 09:50:14;;;;;;;4.90;4.43;;;30.60;67.70;;;;;;5033865;28;20450;-74
2021/06/26 09:52:45;;;;;;;6.33;5.70;;;31.50;65.70;;;;;;5034245;28;20453;-74
2021/06/26 09:55:20;;;;;;;5.00;4.50;;;32.20;59.80;;;;;;5034195;28;20491;-73
2021/06/26 09:57:48;;;;;;;5.90;4.50;;;32.90;56.50;;;;;;5036295;28;20435;-73
2021/06/26 10:00:16;;;;;;;4.60;4.20;;;33.30;55.00;;;;;;5034781;28;20447;-72
2021/06/26 10:02:44;;;;;;;5.53;4.70;;;33.80;53.90;;;;;;5032415;28;20453;-71
2021/06/26 10:05:12;;;;;;;5.20;4.70;;;34.20;52.60;;;;;;5036707;28;20471;-71
2021/06/26 10:07:40;;;;;;;5.13;4.63;;;35.00;50.90;;;;;;5032711;28;20453;-71
2021/06/26 10:10:11;;;;;;;5.40;4.80;;;35.40;48.70;;;;;;5032139;28;20537;-71
2021/06/26 10:12:39;;;;;;;4.87;4.47;;;35.40;47.80;;;;;;5034860;28;20484;-71
2021/06/26 10:15:08;;;;;;;4.50;4.10;;;35.90;47.30;;;;;;5039036;28;20492;-71
2021/06/26 10:17:35;;;;;;;5.17;4.27;;;36.40;46.70;;;;;;5039058;28;20533;-70
2021/06/26 10:20:03;;;;;;;4.83;4.43;;;36.60;46.00;;;;;;5039028;28;20453;-71
2021/06/26 10:22:30;;;;;;;5.40;4.70;;;35.90;45.90;;;;;;5038985;28;20454;-75
2021/06/26 10:25:00;;;;;;;5.30;4.77;;;35.10;47.30;;;;;;5038345;28;20471;-77
2021/06/26 10:27:29;;;;;;;5.23;4.00;;;33.40;50.30;;;;;;5038697;28;20484;-75
2021/06/26 10:29:55;;;;;;;5.00;4.50;;;31.80;53.00;;;;;;5040084;28;20529;-74
2021/06/26 10:32:22;;;;;;;4.33;3.93;;;30.60;56.00;;;;;;5040314;28;20541;-75
2021/06/26 10:34:52;;;;;;;5.40;4.13;;;29.60;59.80;;;;;;5038947;28;20462;-73
2021/06/26 10:37:20;;;;;;;5.57;4.47;;;28.90;61.30;;;;;;5039181;28;20528;-74
2021/06/26 10:39:49;;;;;;;4.47;3.70;;;28.70;63.70;;;;;;5039508;28;20449;-75
2021/06/26 10:42:20;;;;;;;4.53;4.03;;;28.60;62.40;;;;;;5039005;28;20542;-76
2021/06/26 10:44:50;;;;;;;4.53;4.10;;;28.80;62.10;;;;;;5039139;28;20478;-73
2021/06/26 10:47:18;;;;;;;4.83;4.17;;;29.10;63.40;;;;;;5039048;28;20853;-74
2021/06/26 10:49:45;;;;;;;5.73;4.00;;;29.10;67.00;;;;;;5038518;28;20453;-74
2021/06/26 10:52:14;;;;;;;5.10;4.60;;;28.80;63.20;;;;;;5038572;28;20448;-75
2021/06/26 10:54:53;;;;;;;4.67;4.20;;;28.40;65.60;;;;;;5038244;28;20527;-72
2021/06/26 10:57:20;;;;;;;5.10;4.50;;;27.90;65.10;;;;;;5039700;28;20444;-73
2021/06/26 10:59:59;;;;;;;5.53;4.67;;;27.60;68.70;;;;;;5039993;28;20461;-75
2021/06/26 11:02:37;;;;;;;7.73;5.33;;;27.40;68.70;;;;;;5039870;28;20446;-73
2021/06/26 11:05:05;;;;;;;4.83;4.17;;;27.30;74.40;;;;;;5038907;28;20553;-74
2021/06/26 11:07:34;;;;;;;4.70;4.20;;;27.20;71.70;;;;;;5038696;28;20525;-75
2021/06/26 11:10:09;;;;;;;4.90;4.07;;;27.20;71.50;;;;;;5038626;28;20928;-75
2021/06/26 11:12:39;;;;;;;5.37;4.80;;;27.20;70.70;;;;;;5038565;28;20445;-75
2021/06/26 11:15:09;;;;;;;4.60;3.93;;;27.20;74.40;;;;;;5038634;28;20492;-74
2021/06/26 11:17:37;;;;;;;5.70;4.60;;;27.10;74.80;;;;;;5038541;28;20446;-76
2021/06/26 11:20:06;;;;;;;5.13;4.30;;;27.00;75.30;;;;;;5038210;28;20820;-75
2021/06/26 11:22:33;;;;;;;6.40;4.50;;;27.10;76.50;;;;;;5038301;28;20450;-75
2021/06/26 11:25:00;;;;;;;4.63;4.13;;;27.00;75.00;;;;;;5036015;28;20506;-75
2021/06/26 11:27:27;;;;;;;4.60;3.60;;;27.10;77.40;;;;;;5034971;28;20448;-75
2021/06/26 11:30:02;;;;;;;4.70;3.83;;;27.30;74.00;;;;;;5036564;28;20518;-79
2021/06/26 11:32:31;;;;;;;4.77;3.60;;;27.40;72.80;;;;;;5037671;28;20457;-77
2021/06/26 11:34:59;;;;;;;3.83;3.00;;;27.60;73.20;;;;;;5035292;28;20458;-78
2021/06/26 11:37:33;;;;;;;5.73;4.73;;;27.80;70.90;;;;;;5028240;28;20557;-72
2021/06/26 11:40:01;;;;;;;4.10;3.70;;;27.80;71.40;;;;;;5017483;28;20436;-72
2021/06/26 11:42:28;;;;;;;5.00;4.40;;;28.00;70.50;;;;;;5017629;28;20526;-72
2021/06/26 11:44:55;;;;;;;4.90;3.40;;;28.00;71.60;;;;;;5017523;28;20932;-73
2021/06/26 11:47:25;;;;;;;4.10;3.53;;;27.90;70.70;;;;;;5018433;28;20451;-73
2021/06/26 11:49:54;;;;;;;3.53;3.17;;;27.50;67.90;;;;;;5017631;28;20458;-72
2021/06/26 11:52:20;;;;;;;3.60;3.10;;;27.30;73.40;;;;;;5017279;28;20440;-73
2021/06/26 11:54:47;;;;;;;5.60;4.87;;;27.30;76.60;;;;;;5016839;28;20961;-72
2021/06/26 11:57:14;;;;;;;3.93;3.50;;;27.20;76.50;;;;;;5016516;28;21013;-72
2021/06/26 11:59:43;;;;;;;5.17;4.20;;;27.30;73.40;;;;;;5016853;28;20454;-71
2021/06/26 12:02:11;;;;;;;5.83;4.13;;;27.50;71.80;;;;;;5016900;28;20786;-71
2021/06/26 12:04:38;;;;;;;4.60;3.77;;;27.40;71.90;;;;;;5016117;28;20540;-73
2021/06/26 12:07:07;;;;;;;4.60;3.57;;;27.00;71.60;;;;;;5016244;28;20926;-72
2021/06/26 12:09:35;;;;;;;5.10;3.60;;;27.00;74.30;;;;;;5016443;28;20482;-71
2021/06/26 12:12:03;;;;;;;4.80;3.93;;;27.10;72.60;;;;;;5016598;28;20448;-72
2021/06/26 12:14:32;;;;;;;5.50;4.47;;;27.30;74.00;;;;;;5016805;28;20453;-72
2021/06/26 12:17:10;;;;;;;3.70;3.40;;;27.30;71.80;;;;;;5016156;28;20574;-72
2021/06/26 12:19:38;;;;;;;4.67;4.00;;;27.50;70.80;;;;;;5016358;28;20443;-72
2021/06/26 12:22:07;;;;;;;3.87;3.40;;;27.50;71.00;;;;;;5015714;28;20448;-71
2021/06/26 12:24:37;;;;;;;5.07;3.80;;;27.40;71.70;;;;;;5016265;28;20452;-72
2021/06/26 12:27:06;;;;;;;4.53;3.83;;;27.40;70.60;;;;;;5016269;28;20538;-72
2021/06/26 12:29:33;;;;;;;5.97;3.70;;;27.50;72.60;;;;;;5016267;28;20511;-72
2021/06/26 12:32:00;;;;;;;4.70;4.30;;;27.60;72.20;;;;;;5015558;28;20547;-72
2021/06/26 12:34:27;;;;;;;4.77;3.53;;;27.80;72.30;;;;;;5016510;28;20444;-72
2021/06/26 12:36:56;;;;;;;5.93;4.20;;;27.90;71.70;;;;;;5015028;28;20579;-72
2021/06/26 12:39:31;;;;;;;4.50;3.40;;;28.10;71.20;;;;;;5015643;28;20541;-72
2021/06/26 12:42:00;;;;;;;3.73;3.27;;;28.10;68.40;;;;;;5015394;28;21060;-71
2021/06/26 12:44:27;;;;;;;4.63;3.77;;;27.70;69.90;;;;;;5015871;28;20467;-72
2021/06/26 12:46:54;;;;;;;4.43;3.80;;;27.60;69.80;;;;;;5015659;28;20470;-72
2021/06/26 12:49:22;;;;;;;4.17;3.70;;;27.70;67.20;;;;;;5015601;28;20452;-71